Time;durP1;ratioP1;P1;durP2;ratioP2;P2;SDS_P1;SDS_P2;PMS_P1;PMS_P2;Temp;Humidity;BMP_temperature;BMP_pressure;BME280_temperature;BME280_humidity;BME280_pressure;Samples;Min_cycle;Max_cycle;Signal;HPM_P1;HPM_P2
2022/12/15 00:39:20;;;;;;;19.03;10.80;;;;;;;;;;5065465;28;20335;-38
2022/12/15 00:41:49;;;;;;;18.33;10.43;;;;;;;;;;5044298;28;20589;-32
2022/12/15 00:44:16;;;;;;;18.63;10.50;;;;;;;;;;5056641;28;20206;-33
2022/12/15 00:46:54;;;;;;;19.67;11.77;;;;;;;;;;5044126;28;20190;-36
2022/12/15 01:22:25;;;;;;;25.20;12.87;;;;;;;;;;5059667;28;20260;-32
2022/12/15 01:24:52;;;;;;;20.63;10.67;;;;;;;;;;5051706;28;20202;-31
2022/12/15 01:27:19;;;;;;;17.73;11.10;;;;;;;;;;5045655;28;20629;-30
2022/12/15 01:29:48;;;;;;;21.07;11.30;;;;;;;;;;5059206;28;20221;-30
2022/12/15 01:32:15;;;;;;;20.43;11.77;;;;;;;;;;5055249;28;20320;-30
2022/12/15 01:34:42;;;;;;;20.53;10.93;;;;;;;;;;5043380;28;20208;-33
2022/12/15 01:37:09;;;;;;;22.77;12.53;;;;;;;;;;5054787;28;20218;-33
2022/12/15 01:42:21;;;;;;;15.93;9.87;;;;;;;;;;5042234;28;20307;-33
2022/12/15 01:44:52;;;;;;;18.57;10.97;;;;;;;;;;5049493;28;20202;-32
2022/12/15 01:47:23;;;;;;;18.67;10.43;;;;;;;;;;5054587;28;20206;-31
2022/12/15 01:49:50;;;;;;;19.67;11.37;;;;;;;;;;5051546;28;20232;-31
2022/12/15 01:52:17;;;;;;;20.13;10.87;;;;;;;;;;5049942;28;20229;-28
2022/12/15 01:54:47;;;;;;;20.87;11.60;;;;;;;;;;5055622;28;20206;-34
2022/12/15 01:57:17;;;;;;;23.33;12.27;;;;;;;;;;5037328;28;20234;-39
2022/12/15 01:59:49;;;;;;;20.80;11.33;;;;;;;;;;5056646;28;20202;-30
2022/12/15 02:02:19;;;;;;;21.93;13.03;;;;;;;;;;5049461;28;20221;-31
2022/12/15 02:04:46;;;;;;;21.60;12.10;;;;;;;;;;5061596;28;20228;-31
2022/12/15 02:07:13;;;;;;;21.07;12.17;;;;;;;;;;5055042;28;20293;-30
2022/12/15 02:09:41;;;;;;;20.80;12.43;;;;;;;;;;5045913;28;20206;-33
2022/12/15 02:12:12;;;;;;;17.93;11.47;;;;;;;;;;5045323;28;20716;-37
2022/12/15 02:14:48;;;;;;;20.03;11.60;;;;;;;;;;5050536;28;20206;-33
2022/12/15 02:17:19;;;;;;;19.70;12.67;;;;;;;;;;5067455;28;20216;-33
2022/12/15 02:20:04;;;;;;;18.43;11.83;;;;;;;;;;5056474;28;20210;-34
2022/12/15 02:22:41;;;;;;;20.53;12.80;;;;;;;;;;5057714;28;20236;-33
2022/12/15 02:25:21;;;;;;;19.63;10.93;;;;;;;;;;5055184;28;20296;-37
2022/12/15 02:27:52;;;;;;;19.30;11.43;;;;;;;;;;5045114;28;20209;-32
2022/12/15 02:30:23;;;;;;;25.03;13.50;;;;;;;;;;5063641;28;20211;-32
2022/12/15 02:32:57;;;;;;;20.80;12.90;;;;;;;;;;5070786;28;20258;-38
2022/12/15 02:35:26;;;;;;;25.47;14.07;;;;;;;;;;5061348;28;20201;-35
2022/12/15 02:37:54;;;;;;;25.13;13.23;;;;;;;;;;5049385;28;20283;-33
2022/12/15 02:40:21;;;;;;;22.67;11.73;;;;;;;;;;5057924;28;20203;-35
2022/12/15 02:42:50;;;;;;;19.50;12.40;;;;;;;;;;5038607;28;20209;-30
2022/12/15 02:45:18;;;;;;;17.73;11.17;;;;;;;;;;5055156;28;20197;-32
2022/12/15 02:47:50;;;;;;;20.60;12.63;;;;;;;;;;5030617;28;20213;-33
2022/12/15 02:50:30;;;;;;;21.93;12.43;;;;;;;;;;5036070;28;20221;-35
2022/12/15 02:53:03;;;;;;;16.17;10.63;;;;;;;;;;5062746;28;20709;-33
2022/12/15 02:55:35;;;;;;;26.33;15.53;;;;;;;;;;5049258;28;20205;-30
2022/12/15 02:58:06;;;;;;;22.43;12.40;;;;;;;;;;5038991;28;20741;-32
2022/12/15 03:00:36;;;;;;;22.13;12.23;;;;;;;;;;5068360;28;20321;-35
2022/12/15 03:03:05;;;;;;;19.23;11.50;;;;;;;;;;5070462;28;20213;-28
2022/12/15 03:05:32;;;;;;;20.43;12.53;;;;;;;;;;5056584;28;20206;-32
2022/12/15 03:08:00;;;;;;;22.40;12.87;;;;;;;;;;5044016;28;20206;-30
2022/12/15 03:10:27;;;;;;;20.00;12.17;;;;;;;;;;5067174;28;20197;-34
2022/12/15 03:12:54;;;;;;;21.73;11.80;;;;;;;;;;5035671;28;20674;-32
2022/12/15 03:15:22;;;;;;;22.23;12.43;;;;;;;;;;5055894;28;20224;-33
2022/12/15 03:17:49;;;;;;;20.23;12.23;;;;;;;;;;5070285;28;20612;-31
2022/12/15 03:20:18;;;;;;;18.57;10.87;;;;;;;;;;5039686;28;20263;-32
2022/12/15 03:22:45;;;;;;;19.97;11.37;;;;;;;;;;5050261;28;20210;-36
2022/12/15 03:25:12;;;;;;;22.37;12.83;;;;;;;;;;5058080;28;20206;-30
2022/12/15 03:27:39;;;;;;;20.13;12.20;;;;;;;;;;5039292;28;20214;-30
2022/12/15 03:30:07;;;;;;;22.00;12.70;;;;;;;;;;5051050;28;20216;-32
2022/12/15 03:32:34;;;;;;;22.00;12.23;;;;;;;;;;5065549;28;20213;-35
2022/12/15 03:35:01;;;;;;;22.00;12.00;;;;;;;;;;5036618;28;20225;-31
2022/12/15 03:37:30;;;;;;;20.47;12.13;;;;;;;;;;5046235;28;20222;-31
2022/12/15 03:39:57;;;;;;;18.67;11.10;;;;;;;;;;5053144;28;20216;-31
2022/12/15 03:45:05;;;;;;;18.27;11.77;;;;;;;;;;5048002;28;20277;-30
2022/12/15 03:47:32;;;;;;;20.83;12.03;;;;;;;;;;5054819;28;20202;-34
2022/12/15 03:49:59;;;;;;;18.33;11.37;;;;;;;;;;5039847;28;20213;-36
2022/12/15 03:52:27;;;;;;;21.03;12.73;;;;;;;;;;5047372;28;20225;-34
2022/12/15 03:54:55;;;;;;;22.17;12.03;;;;;;;;;;5062272;28;20209;-32
2022/12/15 03:57:22;;;;;;;20.57;11.97;;;;;;;;;;5047425;28;20240;-34
2022/12/15 03:59:49;;;;;;;20.43;12.33;;;;;;;;;;5060378;28;20205;-35
2022/12/15 04:02:17;;;;;;;20.00;12.20;;;;;;;;;;5053098;28;20237;-31
2022/12/15 04:04:44;;;;;;;21.33;11.17;;;;;;;;;;5045620;28;20199;-34
2022/12/15 04:07:11;;;;;;;15.43;10.87;;;;;;;;;;5054443;28;20208;-34
2022/12/15 04:09:39;;;;;;;18.43;10.97;;;;;;;;;;5052815;28;20210;-31
2022/12/15 04:12:07;;;;;;;20.00;10.80;;;;;;;;;;5047570;28;20695;-30
2022/12/15 04:14:35;;;;;;;20.50;11.43;;;;;;;;;;5061005;28;20300;-34
2022/12/15 04:17:02;;;;;;;18.70;12.00;;;;;;;;;;5067097;28;20553;-37
2022/12/15 04:22:14;;;;;;;17.47;10.93;;;;;;;;;;5042549;28;20224;-33
2022/12/15 05:33:28;;;;;;;26.80;14.63;;;;;;;;;;5047338;28;20350;-32
2022/12/15 05:35:57;;;;;;;21.37;13.00;;;;;;;;;;5048007;28;20701;-32
2022/12/15 05:38:24;;;;;;;20.73;11.23;;;;;;;;;;5052751;28;20214;-32
2022/12/15 05:40:51;;;;;;;22.70;13.67;;;;;;;;;;5047179;28;20878;-35
2022/12/15 05:43:18;;;;;;;21.97;13.17;;;;;;;;;;5045934;28;20301;-31
2022/12/15 05:45:45;;;;;;;24.10;13.30;;;;;;;;;;5062199;28;20285;-33
2022/12/15 05:48:13;;;;;;;21.40;13.00;;;;;;;;;;5049310;28;20444;-35
2022/12/15 05:50:42;;;;;;;20.43;12.50;;;;;;;;;;5062418;28;20225;-29
2022/12/15 05:53:09;;;;;;;22.83;13.03;;;;;;;;;;5071515;28;20212;-32
2022/12/15 05:55:36;;;;;;;29.97;14.10;;;;;;;;;;5048879;28;20703;-31
2022/12/15 05:58:03;;;;;;;27.37;14.03;;;;;;;;;;5048655;28;20433;-31
2022/12/15 06:00:30;;;;;;;26.90;14.37;;;;;;;;;;5047443;28;20233;-31
2022/12/15 06:02:58;;;;;;;22.97;12.40;;;;;;;;;;5051140;28;20205;-38
2022/12/15 06:05:25;;;;;;;24.73;13.13;;;;;;;;;;5049591;28;20206;-38
2022/12/15 06:07:55;;;;;;;25.90;13.57;;;;;;;;;;5044429;28;20232;-31
2022/12/15 06:10:22;;;;;;;28.13;13.47;;;;;;;;;;5065895;28;20546;-34
2022/12/15 06:12:49;;;;;;;26.00;14.27;;;;;;;;;;5045557;28;20212;-30
2022/12/15 06:15:16;;;;;;;23.40;11.77;;;;;;;;;;5033960;28;20208;-32
2022/12/15 06:17:43;;;;;;;21.73;12.60;;;;;;;;;;5048709;28;20222;-33
2022/12/15 06:20:11;;;;;;;24.50;14.27;;;;;;;;;;5049784;28;20296;-36
2022/12/15 06:22:38;;;;;;;23.33;12.97;;;;;;;;;;5048201;28;20209;-34
2022/12/15 06:25:07;;;;;;;27.03;13.17;;;;;;;;;;5048984;28;20209;-35
2022/12/15 06:27:37;;;;;;;23.03;13.00;;;;;;;;;;5130957;22;21347;-26
2022/12/15 06:30:04;;;;;;;29.27;14.77;;;;;;;;;;5039628;28;20208;-26
2022/12/15 06:32:32;;;;;;;28.77;14.63;;;;;;;;;;5044255;28;20236;-25
2022/12/15 06:34:59;;;;;;;24.17;13.63;;;;;;;;;;5052988;28;20210;-24
2022/12/15 06:37:26;;;;;;;21.50;11.93;;;;;;;;;;5050654;28;20218;-24
2022/12/15 06:39:53;;;;;;;31.93;15.43;;;;;;;;;;5048426;28;20202;-26
2022/12/15 06:42:21;;;;;;;27.80;14.30;;;;;;;;;;5042144;28;20225;-24
2022/12/15 06:44:49;;;;;;;25.43;13.00;;;;;;;;;;5047259;28;20202;-25
2022/12/15 06:47:16;;;;;;;27.50;14.00;;;;;;;;;;5050228;28;20194;-24
2022/12/15 06:49:43;;;;;;;24.10;12.33;;;;;;;;;;5045658;28;20580;-26
2022/12/15 06:52:10;;;;;;;27.63;14.10;;;;;;;;;;5047481;28;20228;-25
2022/12/15 06:54:37;;;;;;;31.00;15.13;;;;;;;;;;5049461;28;20296;-23
2022/12/15 06:57:04;;;;;;;26.50;13.33;;;;;;;;;;5045177;28;20218;-26
2022/12/15 06:59:33;;;;;;;24.97;13.23;;;;;;;;;;5052070;28;20292;-25
2022/12/15 07:02:00;;;;;;;29.23;14.30;;;;;;;;;;5050389;28;20225;-25
2022/12/15 07:04:27;;;;;;;29.70;14.10;;;;;;;;;;5044364;28;20202;-26
2022/12/15 07:06:55;;;;;;;29.20;14.90;;;;;;;;;;5070454;28;20215;-23
2022/12/15 07:09:24;;;;;;;31.53;14.83;;;;;;;;;;5069985;28;20296;-23
2022/12/15 07:11:52;;;;;;;24.10;11.87;;;;;;;;;;5051176;28;20229;-24
2022/12/15 07:14:19;;;;;;;24.40;13.00;;;;;;;;;;5053392;28;20213;-26
2022/12/15 07:16:47;;;;;;;30.27;13.37;;;;;;;;;;5074335;28;20201;-25
2022/12/15 07:19:15;;;;;;;27.13;13.43;;;;;;;;;;5069262;28;20209;-25
2022/12/15 07:21:42;;;;;;;32.20;15.20;;;;;;;;;;5059443;28;20225;-27
2022/12/15 07:24:10;;;;;;;28.47;14.23;;;;;;;;;;5067138;28;20257;-24
2022/12/15 07:26:38;;;;;;;25.67;14.07;;;;;;;;;;5047065;28;20213;-23
2022/12/15 07:29:05;;;;;;;25.83;13.23;;;;;;;;;;5052064;28;20343;-26
2022/12/15 07:31:32;;;;;;;31.93;14.67;;;;;;;;;;5061669;28;20699;-24
2022/12/15 07:34:00;;;;;;;27.97;14.27;;;;;;;;;;5053872;28;20202;-24
2022/12/15 07:36:28;;;;;;;28.00;14.97;;;;;;;;;;5041550;28;20207;-25
2022/12/15 07:38:59;;;;;;;25.37;13.97;;;;;;;;;;5054928;28;20262;-24
2022/12/15 07:41:26;;;;;;;28.40;13.80;;;;;;;;;;5059895;28;20240;-25
2022/12/15 07:43:54;;;;;;;26.87;14.37;;;;;;;;;;5043278;28;20277;-26
2022/12/15 07:46:21;;;;;;;29.27;14.63;;;;;;;;;;5065968;28;20652;-24
2022/12/15 07:48:48;;;;;;;26.37;13.60;;;;;;;;;;5053060;28;20236;-24
2022/12/15 07:51:18;;;;;;;28.40;13.33;;;;;;;;;;5044290;28;20284;-24
2022/12/15 07:53:45;;;;;;;22.90;13.60;;;;;;;;;;5047950;28;20245;-26
2022/12/15 07:56:12;;;;;;;27.80;13.13;;;;;;;;;;5056769;28;20206;-24
2022/12/15 07:58:39;;;;;;;25.03;13.17;;;;;;;;;;5043953;28;20231;-23
2022/12/15 08:01:07;;;;;;;32.27;14.93;;;;;;;;;;5056908;28;20230;-24
2022/12/15 08:03:35;;;;;;;32.00;15.83;;;;;;;;;;5053422;28;20577;-28
2022/12/15 08:06:04;;;;;;;26.13;13.47;;;;;;;;;;5044852;28;20234;-26
2022/12/15 08:08:32;;;;;;;27.60;13.20;;;;;;;;;;5053895;28;20224;-26
2022/12/15 08:10:59;;;;;;;27.30;13.63;;;;;;;;;;5057360;28;20226;-26
2022/12/15 08:13:27;;;;;;;25.90;12.90;;;;;;;;;;5040456;28;20217;-25
2022/12/15 08:15:54;;;;;;;29.53;13.57;;;;;;;;;;5069819;28;20573;-27
2022/12/15 08:18:21;;;;;;;33.80;14.53;;;;;;;;;;5050655;28;20218;-25
2022/12/15 08:20:48;;;;;;;31.60;14.27;;;;;;;;;;5037199;28;20268;-24
2022/12/15 08:23:16;;;;;;;26.97;14.27;;;;;;;;;;5060564;28;20239;-27
2022/12/15 08:25:44;;;;;;;28.77;14.33;;;;;;;;;;5042338;28;20233;-25
2022/12/15 08:28:11;;;;;;;26.07;14.60;;;;;;;;;;5049655;28;20213;-25
2022/12/15 08:30:39;;;;;;;26.73;14.17;;;;;;;;;;5053580;28;20229;-24
2022/12/15 08:33:06;;;;;;;29.00;14.47;;;;;;;;;;5058001;28;20228;-26
2022/12/15 08:35:33;;;;;;;27.47;15.27;;;;;;;;;;5050754;28;20575;-26
2022/12/15 08:38:02;;;;;;;28.30;14.67;;;;;;;;;;5066899;28;20222;-24
2022/12/15 08:40:29;;;;;;;26.17;14.00;;;;;;;;;;5054104;28;20236;-23
2022/12/15 08:42:57;;;;;;;24.37;13.63;;;;;;;;;;5039575;28;20206;-23
2022/12/15 08:45:24;;;;;;;28.57;14.93;;;;;;;;;;5055368;28;20563;-24
2022/12/15 08:47:51;;;;;;;27.20;14.77;;;;;;;;;;5047254;28;20212;-25
2022/12/15 08:50:19;;;;;;;28.27;14.23;;;;;;;;;;5052396;28;20206;-26
2022/12/15 08:52:46;;;;;;;33.13;16.50;;;;;;;;;;5035078;28;20261;-26
2022/12/15 08:55:13;;;;;;;29.13;15.50;;;;;;;;;;5055950;28;20292;-26
2022/12/15 08:57:40;;;;;;;27.43;14.47;;;;;;;;;;5051560;28;20227;-25
2022/12/15 09:00:10;;;;;;;27.83;14.63;;;;;;;;;;5040192;28;20220;-26
2022/12/15 09:02:39;;;;;;;28.67;15.77;;;;;;;;;;5050692;28;20744;-27
2022/12/15 09:05:06;;;;;;;29.10;15.47;;;;;;;;;;5054419;28;20213;-25
2022/12/15 09:07:34;;;;;;;26.50;14.03;;;;;;;;;;5049543;28;20285;-26
2022/12/15 09:10:01;;;;;;;26.43;14.20;;;;;;;;;;5055133;28;20274;-24
2022/12/15 09:12:28;;;;;;;29.00;15.20;;;;;;;;;;5042645;28;20483;-25
2022/12/15 09:14:55;;;;;;;26.87;15.40;;;;;;;;;;5052853;28;20293;-23
2022/12/15 09:17:24;;;;;;;29.47;14.77;;;;;;;;;;5037241;28;20225;-24
2022/12/15 09:19:51;;;;;;;30.37;14.60;;;;;;;;;;5047714;28;20206;-24
2022/12/15 09:22:19;;;;;;;27.30;15.83;;;;;;;;;;5052357;28;20222;-26
2022/12/15 09:24:46;;;;;;;31.53;16.23;;;;;;;;;;5049611;28;20260;-25
2022/12/15 09:27:13;;;;;;;29.63;16.07;;;;;;;;;;5051530;28;20210;-27
2022/12/15 09:29:46;;;;;;;28.07;16.07;;;;;;;;;;5057008;28;20601;-25
2022/12/15 09:32:13;;;;;;;29.07;15.40;;;;;;;;;;5061128;28;20222;-26
2022/12/15 09:34:42;;;;;;;26.60;14.70;;;;;;;;;;5045881;28;20213;-26
2022/12/15 09:37:09;;;;;;;28.43;15.33;;;;;;;;;;5041260;28;20242;-25
2022/12/15 09:39:37;;;;;;;24.73;13.70;;;;;;;;;;5058565;28;20229;-25
2022/12/15 09:42:05;;;;;;;24.07;14.27;;;;;;;;;;5039778;28;20236;-26
2022/12/15 09:44:33;;;;;;;26.03;13.70;;;;;;;;;;5052124;28;20216;-23
2022/12/15 09:47:04;;;;;;;24.23;12.87;;;;;;;;;;5047823;28;20205;-25
2022/12/15 09:49:39;;;;;;;26.83;14.97;;;;;;;;;;5059186;28;20194;-24
2022/12/15 09:52:11;;;;;;;26.70;14.80;;;;;;;;;;5051982;28;20235;-25
2022/12/15 09:54:40;;;;;;;24.93;12.60;;;;;;;;;;5044739;28;20210;-26
2022/12/15 09:57:11;;;;;;;31.63;15.87;;;;;;;;;;5045366;28;20205;-24
2022/12/15 09:59:41;;;;;;;27.40;16.07;;;;;;;;;;5050821;28;20536;-24
2022/12/15 10:02:23;;;;;;;29.00;15.87;;;;;;;;;;5050879;28;20232;-25
2022/12/15 10:05:06;;;;;;;28.63;16.00;;;;;;;;;;5048406;28;20285;-25
2022/12/15 10:07:40;;;;;;;28.53;15.83;;;;;;;;;;5058453;28;20277;-24
2022/12/15 10:10:12;;;;;;;21.13;11.80;;;;;;;;;;5071384;28;20193;-25
2022/12/15 10:12:42;;;;;;;29.23;15.60;;;;;;;;;;5038512;28;20208;-25
2022/12/15 10:15:14;;;;;;;25.43;14.00;;;;;;;;;;5052295;28;20194;-26
2022/12/15 10:17:45;;;;;;;14.30;8.90;;;;;;;;;;5051302;28;20204;-27
2022/12/15 10:20:17;;;;;;;23.47;13.57;;;;;;;;;;5043347;28;20667;-27
2022/12/15 10:22:46;;;;;;;26.83;15.13;;;;;;;;;;5047815;28;20202;-26
2022/12/15 10:25:15;;;;;;;25.80;15.07;;;;;;;;;;5050689;28;20208;-25
2022/12/15 10:28:06;;;;;;;28.00;14.80;;;;;;;;;;5047155;28;20453;-24
2022/12/15 10:30:34;;;;;;;24.33;13.37;;;;;;;;;;5040180;28;20221;-26
2022/12/15 10:33:02;;;;;;;28.47;16.03;;;;;;;;;;5052965;28;20198;-26
2022/12/15 10:35:30;;;;;;;26.30;14.97;;;;;;;;;;5043564;28;20202;-26
2022/12/15 10:37:59;;;;;;;24.07;14.07;;;;;;;;;;5054479;28;20205;-26
2022/12/15 10:40:41;;;;;;;28.33;15.43;;;;;;;;;;5047028;28;20243;-26
2022/12/15 10:43:13;;;;;;;34.37;18.33;;;;;;;;;;5043796;28;20203;-25
2022/12/15 10:45:40;;;;;;;30.67;16.43;;;;;;;;;;5052533;28;20231;-26
2022/12/15 10:48:17;;;;;;;34.07;18.03;;;;;;;;;;5049546;28;20293;-23
2022/12/15 10:50:44;;;;;;;26.83;15.63;;;;;;;;;;5040404;28;20222;-24
2022/12/15 10:53:36;;;;;;;30.43;13.87;;;;;;;;;;5051095;28;20209;-25
2022/12/15 10:56:07;;;;;;;25.27;13.93;;;;;;;;;;5042138;28;20230;-26
2022/12/15 10:58:45;;;;;;;27.47;14.03;;;;;;;;;;5042496;28;20230;-25
2022/12/15 11:01:16;;;;;;;24.50;14.27;;;;;;;;;;5049849;28;20221;-27
2022/12/15 11:03:44;;;;;;;23.93;13.97;;;;;;;;;;5050062;28;20213;-26
2022/12/15 11:06:15;;;;;;;25.07;12.80;;;;;;;;;;5045152;28;20202;-25
2022/12/15 11:08:44;;;;;;;28.20;15.17;;;;;;;;;;5052024;28;20197;-27
2022/12/15 11:14:12;;;;;;;23.27;13.40;;;;;;;;;;5044689;28;20231;-24
2022/12/15 11:16:45;;;;;;;23.83;12.83;;;;;;;;;;5061267;28;20573;-26
2022/12/15 11:19:14;;;;;;;23.37;12.70;;;;;;;;;;5055520;28;20230;-25
2022/12/15 11:21:45;;;;;;;22.33;12.23;;;;;;;;;;5042955;28;20789;-26
2022/12/15 11:24:14;;;;;;;24.80;13.57;;;;;;;;;;5051688;28;20228;-26
2022/12/15 11:26:49;;;;;;;23.50;13.53;;;;;;;;;;5045266;28;20657;-25
2022/12/15 11:29:22;;;;;;;24.87;16.03;;;;;;;;;;5054070;28;20406;-24
2022/12/15 11:31:50;;;;;;;25.20;14.07;;;;;;;;;;5063300;28;20589;-27
2022/12/15 11:34:18;;;;;;;24.80;13.30;;;;;;;;;;5070427;28;20281;-27
2022/12/15 11:36:54;;;;;;;24.83;14.57;;;;;;;;;;5045888;28;20566;-26
2022/12/15 11:39:25;;;;;;;26.13;14.27;;;;;;;;;;5066092;28;20262;-26
2022/12/15 11:41:58;;;;;;;25.67;12.80;;;;;;;;;;5055687;28;20231;-25
2022/12/15 11:44:28;;;;;;;34.50;17.43;;;;;;;;;;5053595;28;20210;-24
2022/12/15 11:46:58;;;;;;;29.10;16.13;;;;;;;;;;5056984;28;20217;-25
2022/12/15 11:49:44;;;;;;;24.03;12.40;;;;;;;;;;5045054;28;20206;-25
2022/12/15 11:52:16;;;;;;;27.63;15.13;;;;;;;;;;5046237;28;20229;-26
2022/12/15 11:54:47;;;;;;;30.30;16.40;;;;;;;;;;5058004;28;20293;-26
2022/12/15 11:57:26;;;;;;;24.87;13.30;;;;;;;;;;5043015;28;20211;-26
2022/12/15 12:00:02;;;;;;;28.00;14.87;;;;;;;;;;5054315;28;20743;-25
2022/12/15 12:02:44;;;;;;;29.10;14.60;;;;;;;;;;5053409;28;20217;-25
2022/12/15 12:05:20;;;;;;;26.47;14.00;;;;;;;;;;5054180;28;20232;-26
2022/12/15 12:07:48;;;;;;;21.53;11.63;;;;;;;;;;5053392;28;20201;-25
2022/12/15 12:10:24;;;;;;;24.27;12.17;;;;;;;;;;5053445;28;20200;-24
2022/12/15 12:12:58;;;;;;;28.90;16.30;;;;;;;;;;5042508;28;20209;-23
2022/12/15 12:15:30;;;;;;;29.50;15.97;;;;;;;;;;5062693;28;20202;-26
2022/12/15 12:18:01;;;;;;;30.47;14.57;;;;;;;;;;5054337;28;20293;-26
2022/12/15 12:20:41;;;;;;;25.47;13.60;;;;;;;;;;5049953;28;20232;-27
2022/12/15 12:23:14;;;;;;;22.87;12.13;;;;;;;;;;5049842;28;20206;-24
2022/12/15 12:25:44;;;;;;;25.30;12.37;;;;;;;;;;5051029;28;20202;-25
2022/12/15 12:34:02;;;;;;;23.47;12.60;;;;;;;;;;5680688;22;20263;-28
2022/12/15 12:36:58;;;;;;;22.77;12.13;;;;;;;;;;5067133;28;20216;-28
2022/12/15 12:39:33;;;;;;;21.63;13.20;;;;;;;;;;5083237;28;20285;-28
2022/12/15 12:47:22;;;;;;;25.87;14.03;;;;;;;;;;5075767;28;20221;-26
2022/12/15 12:50:10;;;;;;;23.27;13.63;;;;;;;;;;5075348;28;20209;-25
2022/12/15 12:52:57;;;;;;;20.67;12.10;;;;;;;;;;5051154;28;20305;-28
2022/12/15 12:55:41;;;;;;;17.73;11.20;;;;;;;;;;5055544;28;20544;-25
2022/12/15 12:58:30;;;;;;;21.70;10.80;;;;;;;;;;5057483;28;20210;-29
2022/12/15 13:01:32;;;;;;;22.77;12.53;;;;;;;;;;5050916;28;20221;-27
2022/12/15 13:04:39;;;;;;;26.63;13.87;;;;;;;;;;5005724;28;20292;-26
2022/12/15 13:07:44;;;;;;;25.23;13.10;;;;;;;;;;5058305;28;20246;-28
2022/12/15 13:10:34;;;;;;;28.97;14.87;;;;;;;;;;5055116;28;20198;-26
2022/12/15 13:13:40;;;;;;;21.30;12.63;;;;;;;;;;5054418;28;20256;-27
2022/12/15 13:16:27;;;;;;;25.33;13.03;;;;;;;;;;5051676;28;20213;-24
2022/12/15 13:19:14;;;;;;;22.57;12.83;;;;;;;;;;5054478;28;20230;-28
2022/12/15 13:22:04;;;;;;;27.67;13.90;;;;;;;;;;5054368;28;20226;-26
2022/12/15 13:24:44;;;;;;;20.00;10.07;;;;;;;;;;5065361;28;20223;-26
2022/12/15 13:27:18;;;;;;;31.30;14.33;;;;;;;;;;5054852;28;20214;-24
2022/12/15 13:30:18;;;;;;;22.90;13.30;;;;;;;;;;5055494;28;20224;-23
2022/12/15 13:33:15;;;;;;;27.43;15.90;;;;;;;;;;5034854;28;20203;-27
2022/12/15 13:35:49;;;;;;;23.10;11.80;;;;;;;;;;5045905;28;20228;-26
2022/12/15 13:38:44;;;;;;;25.60;13.10;;;;;;;;;;5066649;28;20215;-26
2022/12/15 13:44:50;;;;;;;23.03;11.63;;;;;;;;;;5079603;22;20271;-27
2022/12/15 13:47:42;;;;;;;26.33;14.67;;;;;;;;;;5058934;28;20206;-26
2022/12/15 13:50:38;;;;;;;27.43;15.07;;;;;;;;;;5054082;28;20193;-30
2022/12/15 13:53:14;;;;;;;28.33;16.40;;;;;;;;;;5070702;28;20206;-26
2022/12/15 13:58:28;;;;;;;26.13;14.60;;;;;;;;;;5447104;22;20250;-26
2022/12/15 14:01:25;;;;;;;30.37;16.73;;;;;;;;;;5048197;28;20233;-31
2022/12/15 14:04:22;;;;;;;27.80;14.57;;;;;;;;;;5054725;28;20210;-30
2022/12/15 14:07:08;;;;;;;33.77;17.23;;;;;;;;;;5054964;28;20281;-29
2022/12/15 14:12:31;;;;;;;22.37;10.80;;;;;;;;;;5047685;28;20236;-31
2022/12/15 14:15:18;;;;;;;30.50;16.37;;;;;;;;;;5050374;28;20268;-29
2022/12/15 14:18:05;;;;;;;25.70;14.13;;;;;;;;;;5038796;28;20201;-28
2022/12/15 14:20:48;;;;;;;21.30;12.97;;;;;;;;;;5056503;28;20236;-30
2022/12/15 14:23:38;;;;;;;27.83;14.90;;;;;;;;;;5070598;28;20258;-30
2022/12/15 14:26:26;;;;;;;30.67;16.17;;;;;;;;;;5067344;28;20293;-29
2022/12/15 14:29:06;;;;;;;29.40;14.43;;;;;;;;;;5055417;28;20209;-32
2022/12/15 14:31:55;;;;;;;28.70;15.83;;;;;;;;;;5056790;28;20751;-29
2022/12/15 14:34:37;;;;;;;24.23;13.53;;;;;;;;;;5042661;28;20198;-30
2022/12/15 14:37:16;;;;;;;26.07;14.87;;;;;;;;;;5053039;28;20212;-27
2022/12/15 14:39:48;;;;;;;26.27;13.20;;;;;;;;;;5037874;28;20218;-26
2022/12/15 14:42:20;;;;;;;22.40;12.47;;;;;;;;;;5043390;28;20254;-28
2022/12/15 14:45:00;;;;;;;26.47;14.00;;;;;;;;;;5054544;28;20232;-31
2022/12/15 14:47:53;;;;;;;28.83;14.70;;;;;;;;;;5073045;28;20258;-30
2022/12/15 14:50:28;;;;;;;25.57;13.27;;;;;;;;;;5071875;28;20201;-28
2022/12/15 14:53:05;;;;;;;30.47;14.80;;;;;;;;;;5048341;28;20293;-31
2022/12/15 14:55:44;;;;;;;21.97;12.80;;;;;;;;;;5060253;28;20205;-29
2022/12/15 14:58:36;;;;;;;28.73;14.13;;;;;;;;;;5054097;28;20208;-25
2022/12/15 15:01:28;;;;;;;28.03;14.63;;;;;;;;;;5052043;28;20279;-31
2022/12/15 15:04:11;;;;;;;27.70;14.23;;;;;;;;;;5051543;28;20206;-28
2022/12/15 15:06:49;;;;;;;20.80;12.57;;;;;;;;;;5045385;28;20201;-29
2022/12/15 15:09:31;;;;;;;25.80;13.67;;;;;;;;;;5066572;28;20246;-26
2022/12/15 15:12:07;;;;;;;20.13;12.17;;;;;;;;;;5047226;28;20237;-31
2022/12/15 15:14:44;;;;;;;21.83;12.80;;;;;;;;;;5051917;28;20205;-29
2022/12/15 15:17:30;;;;;;;25.70;13.77;;;;;;;;;;5056068;28;20259;-29
2022/12/15 15:20:04;;;;;;;26.37;12.60;;;;;;;;;;5065656;28;20329;-30
2022/12/15 15:22:45;;;;;;;22.30;12.77;;;;;;;;;;5050278;28;20233;-26
2022/12/15 15:25:44;;;;;;;25.83;13.73;;;;;;;;;;5061769;28;20202;-30
2022/12/15 15:28:30;;;;;;;27.00;13.80;;;;;;;;;;5050190;28;20210;-31
2022/12/15 15:31:10;;;;;;;18.30;9.53;;;;;;;;;;5051913;28;20220;-30
2022/12/15 15:33:51;;;;;;;25.43;14.00;;;;;;;;;;5068354;28;20210;-33
2022/12/15 15:36:35;;;;;;;21.67;11.77;;;;;;;;;;5052405;28;20205;-31
2022/12/15 15:39:28;;;;;;;20.30;9.93;;;;;;;;;;5059237;28;20209;-30
2022/12/15 15:42:20;;;;;;;22.40;11.83;;;;;;;;;;5048188;28;20229;-25
2022/12/15 15:45:00;;;;;;;20.13;11.50;;;;;;;;;;5049385;28;20206;-26
2022/12/15 15:47:53;;;;;;;26.23;13.60;;;;;;;;;;5074629;28;20205;-29
2022/12/15 15:50:44;;;;;;;;;;;;;;;;;;;;;
2022/12/15 15:56:11;;;;;;;25.47;13.10;;;;;;;;;;5666341;22;20226;-24
2022/12/15 16:05:07;;;;;;;21.27;10.23;;;;;;;;;;5068954;28;20289;-28
2022/12/15 16:07:42;;;;;;;24.07;11.93;;;;;;;;;;5067183;28;20209;-28
2022/12/15 16:10:21;;;;;;;20.23;9.73;;;;;;;;;;5091950;28;20203;-29
2022/12/15 16:13:00;;;;;;;22.67;11.33;;;;;;;;;;5067779;28;20231;-27
2022/12/15 16:15:59;;;;;;;24.27;12.57;;;;;;;;;;5083369;28;20255;-28
2022/12/15 16:18:36;;;;;;;22.43;12.43;;;;;;;;;;5074918;28;20212;-31
2022/12/15 16:24:34;;;;;;;22.60;11.37;;;;;;;;;;5083882;28;20212;-30
2022/12/15 16:32:50;;;;;;;19.33;11.50;;;;;;;;;;5133652;22;20236;-33
2022/12/15 16:35:20;;;;;;;20.60;11.17;;;;;;;;;;5091611;28;20228;-30
2022/12/15 16:38:01;;;;;;;19.77;11.70;;;;;;;;;;5071204;28;20296;-28
2022/12/15 16:40:40;;;;;;;17.15;10.20;;;;;;;;;;5118102;22;20237;-29
2022/12/15 16:43:34;;;;;;;17.33;11.40;;;;;;;;;;5054897;28;20218;-26
2022/12/15 16:54:50;;;;;;;27.70;14.87;;;;;;;;;;5075594;28;20220;-28
2022/12/15 16:57:28;;;;;;;25.93;12.40;;;;;;;;;;5063855;28;20226;-25
2022/12/15 17:00:07;;;;;;;20.30;11.07;;;;;;;;;;5074175;28;20284;-25
2022/12/15 17:11:17;;;;;;;21.73;11.67;;;;;;;;;;5143874;22;20489;-24
2022/12/15 17:14:01;;;;;;;20.03;11.87;;;;;;;;;;5066757;28;20291;-28
2022/12/15 17:16:45;;;;;;;19.37;11.17;;;;;;;;;;5072467;28;20216;-26
2022/12/15 17:19:23;;;;;;;20.20;11.57;;;;;;;;;;5070660;28;20206;-24
2022/12/15 17:22:04;;;;;;;24.20;12.10;;;;;;;;;;5077983;28;20259;-23
2022/12/15 17:24:54;;;;;;;22.20;11.40;;;;;;;;;;5075939;28;20198;-25
2022/12/15 17:30:23;;;;;;;21.17;10.47;;;;;;;;;;5653756;22;20236;-29
2022/12/15 17:33:01;;;;;;;19.87;10.90;;;;;;;;;;5034374;28;20209;-33
2022/12/15 17:35:36;;;;;;;25.20;12.53;;;;;;;;;;5048161;28;20271;-26
2022/12/15 17:38:12;;;;;;;19.87;10.23;;;;;;;;;;5605958;22;20221;-24
2022/12/15 17:41:17;;;;;;;21.50;11.20;;;;;;;;;;5642311;22;20298;-26
2022/12/15 17:43:58;;;;;;;22.93;12.13;;;;;;;;;;5051323;28;20213;-27
2022/12/15 17:46:36;;;;;;;23.30;10.93;;;;;;;;;;5063315;28;20258;-28
2022/12/15 17:52:33;;;;;;;23.00;12.00;;;;;;;;;;5074540;22;20230;-26
2022/12/15 17:55:17;;;;;;;23.30;12.30;;;;;;;;;;5075622;28;20209;-27
2022/12/15 17:57:54;;;;;;;24.83;12.73;;;;;;;;;;5070432;28;20205;-24
2022/12/15 18:00:24;;;;;;;23.80;13.00;;;;;;;;;;5077765;22;20224;-28
2022/12/15 18:02:52;;;;;;;21.63;11.77;;;;;;;;;;5040565;28;20294;-28
2022/12/15 18:05:22;;;;;;;26.60;15.00;;;;;;;;;;5031388;28;20233;-27
2022/12/15 18:07:56;;;;;;;23.07;12.57;;;;;;;;;;5043385;28;20219;-33
2022/12/15 18:10:28;;;;;;;21.13;12.20;;;;;;;;;;5052727;28;20202;-29
2022/12/15 18:13:01;;;;;;;24.43;12.40;;;;;;;;;;5030610;28;20210;-32
2022/12/15 18:18:19;;;;;;;19.57;11.20;;;;;;;;;;5037219;28;20223;-29
2022/12/15 18:20:51;;;;;;;27.87;13.43;;;;;;;;;;5032457;28;20226;-29
2022/12/15 18:23:24;;;;;;;27.50;13.57;;;;;;;;;;5035147;28;20217;-31
2022/12/15 18:25:54;;;;;;;25.07;13.67;;;;;;;;;;5049576;28;20206;-28
2022/12/15 18:28:30;;;;;;;22.57;12.10;;;;;;;;;;5033203;28;20207;-28
2022/12/15 18:36:01;;;;;;;21.77;11.57;;;;;;;;;;5000100;28;20231;-26